sensor_id;sensor_type;location;lat;lon;timestamp;pressure;altitude;pressure_sealevel;temperature;humidity
54194;BME280;40102;50.906;6.972;2023-06-22T00:01:24;101065.34;;;25.86;47.38
54194;BME280;40102;50.906;6.972;2023-06-22T00:03:49;101068.28;;;25.84;47.54
54194;BME280;40102;50.906;6.972;2023-06-22T00:06:15;101071.34;;;25.81;47.56
54194;BME280;40102;50.906;6.972;2023-06-22T00:08:40;101075.97;;;25.80;47.40
54194;BME280;40102;50.906;6.972;2023-06-22T00:11:05;101081.47;;;25.80;47.81
54194;BME280;40102;50.906;6.972;2023-06-22T00:13:31;101088.81;;;25.80;47.87
54194;BME280;40102;50.906;6.972;2023-06-22T00:15:56;101078.22;;;25.77;48.09
54194;BME280;40102;50.906;6.972;2023-06-22T00:18:21;101087.13;;;25.79;48.09
54194;BME280;40102;50.906;6.972;2023-06-22T00:20:47;101082.66;;;25.78;47.88
54194;BME280;40102;50.906;6.972;2023-06-22T00:23:12;101087.97;;;25.79;47.87
54194;BME280;40102;50.906;6.972;2023-06-22T00:25:39;101084.19;;;25.80;48.13
54194;BME280;40102;50.906;6.972;2023-06-22T00:28:07;101097.91;;;25.80;48.22
54194;BME280;40102;50.906;6.972;2023-06-22T00:30:33;101085.41;;;25.78;48.07
54194;BME280;40102;50.906;6.972;2023-06-22T00:32:59;101084.38;;;25.79;48.17
54194;BME280;40102;50.906;6.972;2023-06-22T00:35:25;101078.03;;;25.78;48.03
54194;BME280;40102;50.906;6.972;2023-06-22T00:38:09;101083.69;;;25.77;48.01
54194;BME280;40102;50.906;6.972;2023-06-22T00:40:34;101091.75;;;25.78;47.84
54194;BME280;40102;50.906;6.972;2023-06-22T00:42:59;101090.88;;;25.78;48.01
54194;BME280;40102;50.906;6.972;2023-06-22T00:45:26;101085.59;;;25.76;48.06
54194;BME280;40102;50.906;6.972;2023-06-22T00:47:58;101087.28;;;25.77;47.80
54194;BME280;40102;50.906;6.972;2023-06-22T00:50:30;101089.19;;;25.77;47.80
54194;BME280;40102;50.906;6.972;2023-06-22T00:53:00;101091.06;;;25.76;48.27
54194;BME280;40102;50.906;6.972;2023-06-22T00:55:26;101093.97;;;25.75;48.04
54194;BME280;40102;50.906;6.972;2023-06-22T00:57:52;101090.72;;;25.71;48.29
54194;BME280;40102;50.906;6.972;2023-06-22T01:00:23;101090.91;;;25.70;48.33
54194;BME280;40102;50.906;6.972;2023-06-22T01:02:52;101076.88;;;25.65;48.54
54194;BME280;40102;50.906;6.972;2023-06-22T01:05:22;101086.47;;;25.69;48.07
54194;BME280;40102;50.906;6.972;2023-06-22T01:10:43;101076.16;;;25.63;48.11
54194;BME280;40102;50.906;6.972;2023-06-22T01:16:00;101070.34;;;25.58;48.35
54194;BME280;40102;50.906;6.972;2023-06-22T01:18:29;101077.91;;;25.56;48.72
54194;BME280;40102;50.906;6.972;2023-06-22T01:20:55;101074.47;;;25.54;48.67
54194;BME280;40102;50.906;6.972;2023-06-22T01:24:04;101067.97;;;25.55;48.73
54194;BME280;40102;50.906;6.972;2023-06-22T01:26:42;101070.03;;;25.53;48.69
54194;BME280;40102;50.906;6.972;2023-06-22T01:29:10;101064.38;;;25.54;48.45
54194;BME280;40102;50.906;6.972;2023-06-22T01:31:38;101045.91;;;25.48;48.71
54194;BME280;40102;50.906;6.972;2023-06-22T01:34:06;101042.81;;;25.51;48.89
54194;BME280;40102;50.906;6.972;2023-06-22T01:36:32;101050.84;;;25.53;48.62
54194;BME280;40102;50.906;6.972;2023-06-22T01:38:58;101043.66;;;25.52;48.73
54194;BME280;40102;50.906;6.972;2023-06-22T01:41:26;101042.31;;;25.47;49.03
54194;BME280;40102;50.906;6.972;2023-06-22T01:43:52;101032.22;;;25.48;49.06
54194;BME280;40102;50.906;6.972;2023-06-22T01:46:18;101032.22;;;25.48;49.02
54194;BME280;40102;50.906;6.972;2023-06-22T01:48:45;101040.78;;;25.45;49.39
54194;BME280;40102;50.906;6.972;2023-06-22T01:51:11;101039.06;;;25.44;49.14
54194;BME280;40102;50.906;6.972;2023-06-22T01:53:37;101028.28;;;25.42;48.56
54194;BME280;40102;50.906;6.972;2023-06-22T01:56:02;101033.75;;;25.42;49.26
54194;BME280;40102;50.906;6.972;2023-06-22T01:58:29;101031.03;;;25.42;48.93
54194;BME280;40102;50.906;6.972;2023-06-22T02:01:10;101031.03;;;25.42;48.91
54194;BME280;40102;50.906;6.972;2023-06-22T02:03:42;101024.69;;;25.42;48.88
54194;BME280;40102;50.906;6.972;2023-06-22T02:06:21;101028.47;;;25.41;49.30
54194;BME280;40102;50.906;6.972;2023-06-22T02:08:53;101035.13;;;25.38;49.11
54194;BME280;40102;50.906;6.972;2023-06-22T02:11:21;101030.69;;;25.37;49.10
54194;BME280;40102;50.906;6.972;2023-06-22T02:13:47;101028.31;;;25.34;49.11
54194;BME280;40102;50.906;6.972;2023-06-22T02:16:14;101029.50;;;25.32;49.21
54194;BME280;40102;50.906;6.972;2023-06-22T02:18:48;101036.50;;;25.34;48.91
54194;BME280;40102;50.906;6.972;2023-06-22T02:21:17;101029.31;;;25.33;48.92
54194;BME280;40102;50.906;6.972;2023-06-22T02:23:43;101019.56;;;25.31;49.10
54194;BME280;40102;50.906;6.972;2023-06-22T02:26:08;101029.50;;;25.32;49.02
54194;BME280;40102;50.906;6.972;2023-06-22T02:28:34;101031.22;;;25.33;49.02
54194;BME280;40102;50.906;6.972;2023-06-22T02:30:59;101025.22;;;25.29;48.80
54194;BME280;40102;50.906;6.972;2023-06-22T02:33:25;101025.22;;;25.29;48.79
54194;BME280;40102;50.906;6.972;2023-06-22T02:35:50;101016.50;;;25.26;49.21
54194;BME280;40102;50.906;6.972;2023-06-22T02:38:15;101020.28;;;25.25;49.44
54194;BME280;40102;50.906;6.972;2023-06-22T02:40:42;101020.28;;;25.25;49.07
54194;BME280;40102;50.906;6.972;2023-06-22T02:43:07;101021.97;;;25.26;49.07
54194;BME280;40102;50.906;6.972;2023-06-22T02:45:33;101020.97;;;25.27;49.14
54194;BME280;40102;50.906;6.972;2023-06-22T02:47:58;101018.22;;;25.27;49.32
54194;BME280;40102;50.906;6.972;2023-06-22T02:50:30;101010.84;;;25.27;49.42
54194;BME280;40102;50.906;6.972;2023-06-22T02:52:55;101012.06;;;25.25;49.45
54194;BME280;40102;50.906;6.972;2023-06-22T02:55:20;101015.66;;;25.25;49.26
54194;BME280;40102;50.906;6.972;2023-06-22T02:57:46;100998.72;;;25.22;50.06
54194;BME280;40102;50.906;6.972;2023-06-22T03:00:13;101007.78;;;25.22;49.79
54194;BME280;40102;50.906;6.972;2023-06-22T03:02:48;101003.16;;;25.23;49.87
54194;BME280;40102;50.906;6.972;2023-06-22T03:05:14;100997.69;;;25.23;50.22
54194;BME280;40102;50.906;6.972;2023-06-22T03:07:40;100986.91;;;25.21;50.48
54194;BME280;40102;50.906;6.972;2023-06-22T03:10:08;100998.22;;;25.18;50.62
54194;BME280;40102;50.906;6.972;2023-06-22T03:12:34;101006.59;;;25.08;50.92
54194;BME280;40102;50.906;6.972;2023-06-22T03:14:59;101005.72;;;24.75;51.54
54194;BME280;40102;50.906;6.972;2023-06-22T03:17:25;101003.13;;;24.41;52.39
54194;BME280;40102;50.906;6.972;2023-06-22T03:19:50;101012.78;;;24.19;53.47
54194;BME280;40102;50.906;6.972;2023-06-22T03:22:15;100998.75;;;24.06;53.99
54194;BME280;40102;50.906;6.972;2023-06-22T03:24:41;101008.16;;;24.12;54.10
54194;BME280;40102;50.906;6.972;2023-06-22T03:27:06;100998.44;;;24.17;53.47
54194;BME280;40102;50.906;6.972;2023-06-22T03:29:31;100998.31;;;24.27;53.32
54194;BME280;40102;50.906;6.972;2023-06-22T03:31:57;100989.78;;;24.30;53.29
54194;BME280;40102;50.906;6.972;2023-06-22T03:34:22;100996.97;;;24.31;53.61
54194;BME280;40102;50.906;6.972;2023-06-22T03:36:47;100986.38;;;24.28;54.08
54194;BME280;40102;50.906;6.972;2023-06-22T03:39:13;100983.25;;;24.23;54.53
54194;BME280;40102;50.906;6.972;2023-06-22T03:41:38;100977.41;;;24.10;54.76
54194;BME280;40102;50.906;6.972;2023-06-22T03:44:04;100976.34;;;24.03;55.92
54194;BME280;40102;50.906;6.972;2023-06-22T03:46:29;100979.47;;;24.16;55.25
54194;BME280;40102;50.906;6.972;2023-06-22T03:48:55;100979.31;;;24.26;55.19
54194;BME280;40102;50.906;6.972;2023-06-22T03:51:20;100980.56;;;24.39;54.78
54194;BME280;40102;50.906;6.972;2023-06-22T03:53:46;100973.41;;;24.46;54.70
54194;BME280;40102;50.906;6.972;2023-06-22T03:56:11;100970.00;;;24.61;54.22
54194;BME280;40102;50.906;6.972;2023-06-22T03:58:36;100970.84;;;24.69;53.85
54194;BME280;40102;50.906;6.972;2023-06-22T04:01:07;100971.72;;;24.70;54.04
54194;BME280;40102;50.906;6.972;2023-06-22T04:03:36;100973.94;;;24.58;54.54
54194;BME280;40102;50.906;6.972;2023-06-22T04:06:01;100970.31;;;24.41;55.38
54194;BME280;40102;50.906;6.972;2023-06-22T04:08:27;100975.22;;;24.21;55.80
54194;BME280;40102;50.906;6.972;2023-06-22T04:10:52;100977.03;;;23.97;56.98
54194;BME280;40102;50.906;6.972;2023-06-22T04:13:17;100974.03;;;23.74;57.86
54194;BME280;40102;50.906;6.972;2023-06-22T04:15:43;100973.50;;;23.70;58.29
54194;BME280;40102;50.906;6.972;2023-06-22T04:18:08;100964.34;;;23.79;58.71
54194;BME280;40102;50.906;6.972;2023-06-22T04:20:34;100959.41;;;23.83;58.52
54194;BME280;40102;50.906;6.972;2023-06-22T04:22:59;100948.13;;;23.86;58.90
54194;BME280;40102;50.906;6.972;2023-06-22T04:25:24;100953.47;;;23.96;58.30
54194;BME280;40102;50.906;6.972;2023-06-22T04:27:50;100960.50;;;24.06;57.82
54194;BME280;40102;50.906;6.972;2023-06-22T04:30:16;100962.19;;;24.07;57.52
54194;BME280;40102;50.906;6.972;2023-06-22T04:32:42;100967.66;;;24.07;57.76
54194;BME280;40102;50.906;6.972;2023-06-22T04:35:08;100966.44;;;24.02;57.78
54194;BME280;40102;50.906;6.972;2023-06-22T04:37:34;100976.88;;;24.06;57.76
54194;BME280;40102;50.906;6.972;2023-06-22T04:39:59;100976.38;;;24.11;57.39
54194;BME280;40102;50.906;6.972;2023-06-22T04:42:27;100972.56;;;23.96;58.22
54194;BME280;40102;50.906;6.972;2023-06-22T04:44:53;100977.94;;;23.71;59.38
54194;BME280;40102;50.906;6.972;2023-06-22T04:47:18;100976.47;;;23.51;60.45
54194;BME280;40102;50.906;6.972;2023-06-22T04:49:44;100983.19;;;23.56;60.76
54194;BME280;40102;50.906;6.972;2023-06-22T04:52:11;100985.63;;;23.68;60.00
54194;BME280;40102;50.906;6.972;2023-06-22T04:54:38;100985.16;;;23.80;59.91
54194;BME280;40102;50.906;6.972;2023-06-22T04:57:07;100972.06;;;23.92;59.61
54194;BME280;40102;50.906;6.972;2023-06-22T04:59:35;100971.94;;;24.10;59.08
54194;BME280;40102;50.906;6.972;2023-06-22T05:02:02;100965.13;;;24.22;58.39
54194;BME280;40102;50.906;6.972;2023-06-22T05:04:29;100976.97;;;24.31;58.03
54194;BME280;40102;50.906;6.972;2023-06-22T05:06:57;100985.88;;;24.41;58.03
54194;BME280;40102;50.906;6.972;2023-06-22T05:09:22;100974.09;;;24.48;57.60
54194;BME280;40102;50.906;6.972;2023-06-22T05:11:48;100970.84;;;24.53;57.49
54194;BME280;40102;50.906;6.972;2023-06-22T05:14:14;100975.47;;;24.61;57.26
54194;BME280;40102;50.906;6.972;2023-06-22T05:16:41;100968.81;;;24.63;57.15
54194;BME280;40102;50.906;6.972;2023-06-22T05:19:07;100978.03;;;24.70;57.14
54194;BME280;40102;50.906;6.972;2023-06-22T05:21:32;100979.41;;;24.74;57.16
54194;BME280;40102;50.906;6.972;2023-06-22T05:23:58;100975.31;;;24.78;56.75
54194;BME280;40102;50.906;6.972;2023-06-22T05:26:28;100966.25;;;24.78;56.69
54194;BME280;40102;50.906;6.972;2023-06-22T05:28:54;100973.41;;;24.79;56.51
54194;BME280;40102;50.906;6.972;2023-06-22T05:31:19;100964.34;;;24.78;56.51
54194;BME280;40102;50.906;6.972;2023-06-22T05:33:45;100968.47;;;24.74;56.95
54194;BME280;40102;50.906;6.972;2023-06-22T05:36:11;100972.22;;;24.73;56.86
54194;BME280;40102;50.906;6.972;2023-06-22T05:38:38;100971.72;;;24.70;57.59
54194;BME280;40102;50.906;6.972;2023-06-22T05:41:04;100974.09;;;24.57;59.31
54194;BME280;40102;50.906;6.972;2023-06-22T05:43:29;100966.22;;;24.45;59.93
54194;BME280;40102;50.906;6.972;2023-06-22T05:45:55;100968.44;;;24.34;60.47
54194;BME280;40102;50.906;6.972;2023-06-22T05:48:20;100978.97;;;24.20;61.16
54194;BME280;40102;50.906;6.972;2023-06-22T05:50:46;100976.91;;;24.14;61.55
54194;BME280;40102;50.906;6.972;2023-06-22T05:53:11;100977.25;;;24.19;61.83
54194;BME280;40102;50.906;6.972;2023-06-22T05:55:37;100976.41;;;24.19;62.36
54194;BME280;40102;50.906;6.972;2023-06-22T05:58:02;100970.59;;;24.22;62.26
54194;BME280;40102;50.906;6.972;2023-06-22T06:00:29;100968.38;;;24.26;62.10
54194;BME280;40102;50.906;6.972;2023-06-22T06:02:54;100977.50;;;24.34;61.64
54194;BME280;40102;50.906;6.972;2023-06-22T06:05:19;100988.59;;;24.41;61.74
54194;BME280;40102;50.906;6.972;2023-06-22T06:07:45;100975.78;;;24.41;61.59
54194;BME280;40102;50.906;6.972;2023-06-22T06:10:11;100982.63;;;24.45;61.82
54194;BME280;40102;50.906;6.972;2023-06-22T06:12:37;100981.53;;;24.22;63.44
54194;BME280;40102;50.906;6.972;2023-06-22T06:15:03;100986.44;;;24.02;64.26
54194;BME280;40102;50.906;6.972;2023-06-22T06:17:29;100979.03;;;23.86;65.05
54194;BME280;40102;50.906;6.972;2023-06-22T06:19:55;100980.19;;;23.76;65.51
54194;BME280;40102;50.906;6.972;2023-06-22T06:22:20;100981.56;;;23.80;65.84
54194;BME280;40102;50.906;6.972;2023-06-22T06:24:48;101005.66;;;23.84;66.39
54194;BME280;40102;50.906;6.972;2023-06-22T06:27:13;101002.94;;;23.84;66.83
54194;BME280;40102;50.906;6.972;2023-06-22T06:29:42;100981.69;;;23.70;66.50
54194;BME280;40102;50.906;6.972;2023-06-22T06:32:11;101000.91;;;23.95;65.88
54194;BME280;40102;50.906;6.972;2023-06-22T06:34:43;101007.97;;;24.13;64.89
54194;BME280;40102;50.906;6.972;2023-06-22T06:37:11;101009.38;;;24.26;64.99
54194;BME280;40102;50.906;6.972;2023-06-22T06:39:36;101002.19;;;24.16;64.67
54194;BME280;40102;50.906;6.972;2023-06-22T06:42:02;101004.06;;;24.16;64.60
54194;BME280;40102;50.906;6.972;2023-06-22T06:44:27;101004.91;;;24.16;64.54
54194;BME280;40102;50.906;6.972;2023-06-22T06:46:53;100996.56;;;24.18;64.38
54194;BME280;40102;50.906;6.972;2023-06-22T06:49:19;100983.94;;;24.25;64.35
54194;BME280;40102;50.906;6.972;2023-06-22T06:51:44;100979.19;;;24.35;64.18
54194;BME280;40102;50.906;6.972;2023-06-22T06:54:10;100977.81;;;24.31;64.24
54194;BME280;40102;50.906;6.972;2023-06-22T06:56:35;100964.84;;;24.33;63.86
54194;BME280;40102;50.906;6.972;2023-06-22T06:59:01;100974.06;;;24.32;64.97
54194;BME280;40102;50.906;6.972;2023-06-22T07:01:26;100959.56;;;24.32;65.31
54194;BME280;40102;50.906;6.972;2023-06-22T07:03:52;100967.91;;;24.30;65.16
54194;BME280;40102;50.906;6.972;2023-06-22T07:06:18;100961.44;;;24.39;64.48
54194;BME280;40102;50.906;6.972;2023-06-22T07:08:44;100960.25;;;24.50;64.01
54194;BME280;40102;50.906;6.972;2023-06-22T07:11:09;100957.19;;;24.61;63.88
54194;BME280;40102;50.906;6.972;2023-06-22T07:13:34;100957.19;;;24.69;63.65
54194;BME280;40102;50.906;6.972;2023-06-22T07:16:00;100948.47;;;24.74;63.23
54194;BME280;40102;50.906;6.972;2023-06-22T07:18:25;100946.94;;;24.71;63.83
54194;BME280;40102;50.906;6.972;2023-06-22T07:20:51;100941.63;;;24.70;63.64
54194;BME280;40102;50.906;6.972;2023-06-22T07:23:17;100946.59;;;24.74;62.95
54194;BME280;40102;50.906;6.972;2023-06-22T07:25:42;100947.59;;;24.81;62.90
54194;BME280;40102;50.906;6.972;2023-06-22T07:28:08;100946.22;;;24.85;62.77
54194;BME280;40102;50.906;6.972;2023-06-22T07:30:33;100941.94;;;24.91;62.85
54194;BME280;40102;50.906;6.972;2023-06-22T07:33:00;100932.22;;;24.97;62.59
54194;BME280;40102;50.906;6.972;2023-06-22T07:35:30;100929.16;;;25.00;62.27
54194;BME280;40102;50.906;6.972;2023-06-22T07:37:56;100918.72;;;25.03;62.68
54194;BME280;40102;50.906;6.972;2023-06-22T07:40:21;100921.09;;;25.06;62.94
54194;BME280;40102;50.906;6.972;2023-06-22T07:42:46;100927.78;;;25.04;63.47
54194;BME280;40102;50.906;6.972;2023-06-22T07:45:13;100920.94;;;25.00;63.47
54194;BME280;40102;50.906;6.972;2023-06-22T07:47:39;100910.31;;;25.05;63.50
54194;BME280;40102;50.906;6.972;2023-06-22T07:50:04;100904.16;;;25.11;63.19
54194;BME280;40102;50.906;6.972;2023-06-22T07:52:36;100903.44;;;25.17;62.53
54194;BME280;40102;50.906;6.972;2023-06-22T07:55:05;100904.97;;;25.20;62.36
54194;BME280;40102;50.906;6.972;2023-06-22T07:57:30;100899.53;;;25.11;62.21
54194;BME280;40102;50.906;6.972;2023-06-22T08:00:04;100914.78;;;25.06;62.49
54194;BME280;40102;50.906;6.972;2023-06-22T08:02:39;100906.72;;;25.04;62.29
54194;BME280;40102;50.906;6.972;2023-06-22T08:05:05;100903.81;;;25.06;62.16
54194;BME280;40102;50.906;6.972;2023-06-22T08:07:32;100897.31;;;25.07;61.91
54194;BME280;40102;50.906;6.972;2023-06-22T08:09:58;100902.94;;;25.13;61.70
54194;BME280;40102;50.906;6.972;2023-06-22T08:12:23;100891.13;;;25.21;61.77
54194;BME280;40102;50.906;6.972;2023-06-22T08:14:49;100877.59;;;25.28;61.38
54194;BME280;40102;50.906;6.972;2023-06-22T08:17:15;100864.41;;;25.31;61.52
54194;BME280;40102;50.906;6.972;2023-06-22T08:19:40;100873.06;;;25.43;61.44
54194;BME280;40102;50.906;6.972;2023-06-22T08:22:06;100866.88;;;25.49;61.32
54194;BME280;40102;50.906;6.972;2023-06-22T08:24:31;100860.88;;;25.54;61.26
54194;BME280;40102;50.906;6.972;2023-06-22T08:26:57;100857.78;;;25.57;61.79
54194;BME280;40102;50.906;6.972;2023-06-22T08:29:22;100851.94;;;25.60;61.87
54194;BME280;40102;50.906;6.972;2023-06-22T08:31:47;100854.13;;;25.64;61.35
54194;BME280;40102;50.906;6.972;2023-06-22T08:34:13;100845.78;;;25.66;61.57
54194;BME280;40102;50.906;6.972;2023-06-22T08:36:38;100843.34;;;25.71;61.29
54194;BME280;40102;50.906;6.972;2023-06-22T08:39:07;100837.69;;;25.72;60.72
54194;BME280;40102;50.906;6.972;2023-06-22T08:41:32;100837.31;;;25.75;61.13
54194;BME280;40102;50.906;6.972;2023-06-22T08:43:57;100834.22;;;25.78;61.02
54194;BME280;40102;50.906;6.972;2023-06-22T08:46:23;100830.25;;;25.81;61.67
54194;BME280;40102;50.906;6.972;2023-06-22T08:48:56;100833.31;;;25.86;61.21
54194;BME280;40102;50.906;6.972;2023-06-22T08:51:22;100831.91;;;25.90;61.03
54194;BME280;40102;50.906;6.972;2023-06-22T08:53:47;100829.84;;;25.92;60.86
54194;BME280;40102;50.906;6.972;2023-06-22T08:56:13;100824.38;;;25.92;60.47
54194;BME280;40102;50.906;6.972;2023-06-22T08:58:38;100824.72;;;25.89;60.69
54194;BME280;40102;50.906;6.972;2023-06-22T09:01:03;100824.72;;;25.89;60.38
54194;BME280;40102;50.906;6.972;2023-06-22T09:03:29;100814.97;;;25.87;60.19
54194;BME280;40102;50.906;6.972;2023-06-22T09:05:55;100814.69;;;25.81;60.56
54194;BME280;40102;50.906;6.972;2023-06-22T09:08:20;100807.50;;;25.80;60.59
54194;BME280;40102;50.906;6.972;2023-06-22T09:10:46;100805.59;;;25.81;60.85
54194;BME280;40102;50.906;6.972;2023-06-22T09:13:11;100798.06;;;25.83;60.88
54194;BME280;40102;50.906;6.972;2023-06-22T09:15:37;100784.19;;;25.85;61.14
54194;BME280;40102;50.906;6.972;2023-06-22T09:18:02;100788.25;;;25.89;61.69
54194;BME280;40102;50.906;6.972;2023-06-22T09:20:28;100792.03;;;25.88;61.93
54194;BME280;40102;50.906;6.972;2023-06-22T09:22:53;100786.38;;;25.89;62.24
54194;BME280;40102;50.906;6.972;2023-06-22T09:25:18;100775.22;;;25.91;61.90
54194;BME280;40102;50.906;6.972;2023-06-22T09:27:46;100774.84;;;25.94;61.81
54194;BME280;40102;50.906;6.972;2023-06-22T09:30:11;100766.81;;;25.92;62.16
54194;BME280;40102;50.906;6.972;2023-06-22T09:32:37;100764.56;;;25.96;61.94
54194;BME280;40102;50.906;6.972;2023-06-22T09:35:04;100756.59;;;26.01;61.45
54194;BME280;40102;50.906;6.972;2023-06-22T09:37:30;100752.28;;;26.06;61.38
54194;BME280;40102;50.906;6.972;2023-06-22T09:39:56;100760.44;;;26.14;61.14
54194;BME280;40102;50.906;6.972;2023-06-22T09:42:21;100758.66;;;26.22;60.53
54194;BME280;40102;50.906;6.972;2023-06-22T09:44:47;100756.00;;;26.28;60.65
54194;BME280;40102;50.906;6.972;2023-06-22T09:47:12;100757.38;;;26.32;60.52
54194;BME280;40102;50.906;6.972;2023-06-22T09:49:37;100761.63;;;26.35;60.14
54194;BME280;40102;50.906;6.972;2023-06-22T09:52:03;100757.00;;;26.35;59.92
54194;BME280;40102;50.906;6.972;2023-06-22T09:54:32;100755.81;;;26.30;60.24
54194;BME280;40102;50.906;6.972;2023-06-22T09:56:57;100749.88;;;26.26;60.80
54194;BME280;40102;50.906;6.972;2023-06-22T09:59:22;100756.56;;;26.24;60.58
54194;BME280;40102;50.906;6.972;2023-06-22T10:01:48;100754.00;;;26.22;60.30
54194;BME280;40102;50.906;6.972;2023-06-22T10:04:13;100757.13;;;26.19;60.17
54194;BME280;40102;50.906;6.972;2023-06-22T10:06:39;100756.47;;;26.17;60.16
54194;BME280;40102;50.906;6.972;2023-06-22T10:09:06;100766.09;;;26.13;60.11
54194;BME280;40102;50.906;6.972;2023-06-22T10:11:32;100777.78;;;26.07;61.04
54194;BME280;40102;50.906;6.972;2023-06-22T10:14:00;100789.91;;;25.98;62.00
54194;BME280;40102;50.906;6.972;2023-06-22T10:16:30;100798.19;;;25.90;62.23
54194;BME280;40102;50.906;6.972;2023-06-22T10:18:56;100810.72;;;25.84;62.45
54194;BME280;40102;50.906;6.972;2023-06-22T10:21:22;100812.97;;;25.80;61.22
54194;BME280;40102;50.906;6.972;2023-06-22T10:23:47;100822.91;;;25.81;60.72
54194;BME280;40102;50.906;6.972;2023-06-22T10:26:12;100827.53;;;25.81;60.76
54194;BME280;40102;50.906;6.972;2023-06-22T10:28:38;100830.94;;;25.83;61.08
54194;BME280;40102;50.906;6.972;2023-06-22T10:31:03;100835.19;;;25.86;62.25
54194;BME280;40102;50.906;6.972;2023-06-22T10:33:29;100847.19;;;25.85;63.04
54194;BME280;40102;50.906;6.972;2023-06-22T10:35:54;100857.97;;;25.86;63.21
54194;BME280;40102;50.906;6.972;2023-06-22T10:38:20;100856.94;;;25.87;65.30
54194;BME280;40102;50.906;6.972;2023-06-22T10:40:46;100862.59;;;25.86;66.80
54194;BME280;40102;50.906;6.972;2023-06-22T10:43:11;100872.22;;;25.81;66.99
54194;BME280;40102;50.906;6.972;2023-06-22T10:45:36;100880.97;;;25.77;67.15
54194;BME280;40102;50.906;6.972;2023-06-22T10:48:02;100877.75;;;25.73;68.41
54194;BME280;40102;50.906;6.972;2023-06-22T10:50:27;100875.72;;;25.67;69.23
54194;BME280;40102;50.906;6.972;2023-06-22T10:52:54;100870.94;;;25.61;70.42
54194;BME280;40102;50.906;6.972;2023-06-22T10:55:19;100858.63;;;25.57;70.39
54194;BME280;40102;50.906;6.972;2023-06-22T10:57:45;100867.03;;;25.56;70.90
54194;BME280;40102;50.906;6.972;2023-06-22T11:00:13;100871.16;;;25.52;70.47
54194;BME280;40102;50.906;6.972;2023-06-22T11:02:38;100884.84;;;25.52;70.50
54194;BME280;40102;50.906;6.972;2023-06-22T11:05:04;100890.66;;;25.48;71.14
54194;BME280;40102;50.906;6.972;2023-06-22T11:07:29;100892.22;;;25.43;73.72
54194;BME280;40102;50.906;6.972;2023-06-22T11:09:55;100876.50;;;25.37;74.27
54194;BME280;40102;50.906;6.972;2023-06-22T11:12:33;100829.47;;;25.33;74.56
54194;BME280;40102;50.906;6.972;2023-06-22T11:14:58;100817.50;;;25.34;75.28
54194;BME280;40102;50.906;6.972;2023-06-22T11:17:24;100807.94;;;25.30;77.93
54194;BME280;40102;50.906;6.972;2023-06-22T11:19:50;100803.50;;;25.29;79.37
54194;BME280;40102;50.906;6.972;2023-06-22T11:22:15;100816.81;;;25.32;79.83
54194;BME280;40102;50.906;6.972;2023-06-22T11:24:41;100831.53;;;25.31;80.15
54194;BME280;40102;50.906;6.972;2023-06-22T11:27:10;100832.75;;;25.29;80.93
54194;BME280;40102;50.906;6.972;2023-06-22T11:29:35;100805.31;;;25.06;83.49
54194;BME280;40102;50.906;6.972;2023-06-22T11:32:01;100790.63;;;24.91;85.84
54194;BME280;40102;50.906;6.972;2023-06-22T11:34:26;100791.16;;;24.86;86.30
54194;BME280;40102;50.906;6.972;2023-06-22T11:36:59;100774.75;;;24.86;86.84
54194;BME280;40102;50.906;6.972;2023-06-22T11:39:24;100739.69;;;24.90;86.30
54194;BME280;40102;50.906;6.972;2023-06-22T11:41:49;100688.19;;;24.93;85.79
54194;BME280;40102;50.906;6.972;2023-06-22T11:44:15;100672.44;;;24.95;85.65
54194;BME280;40102;50.906;6.972;2023-06-22T11:46:40;100687.53;;;24.91;85.44
54194;BME280;40102;50.906;6.972;2023-06-22T11:49:06;100709.44;;;24.83;86.16
54194;BME280;40102;50.906;6.972;2023-06-22T11:51:31;100715.78;;;24.83;86.75
54194;BME280;40102;50.906;6.972;2023-06-22T11:53:57;100719.31;;;24.92;87.73
54194;BME280;40102;50.906;6.972;2023-06-22T11:56:22;100713.84;;;25.00;87.75
54194;BME280;40102;50.906;6.972;2023-06-22T11:58:48;100725.59;;;25.09;87.85
54194;BME280;40102;50.906;6.972;2023-06-22T12:01:13;100721.28;;;25.14;88.13
54194;BME280;40102;50.906;6.972;2023-06-22T12:03:40;100712.94;;;25.08;87.84
54194;BME280;40102;50.906;6.972;2023-06-22T12:06:06;100713.25;;;25.13;90.00
54194;BME280;40102;50.906;6.972;2023-06-22T12:08:31;100705.34;;;25.18;91.65
54194;BME280;40102;50.906;6.972;2023-06-22T12:10:56;100687.22;;;25.17;90.96
54194;BME280;40102;50.906;6.972;2023-06-22T12:13:22;100692.72;;;25.17;88.27
54194;BME280;40102;50.906;6.972;2023-06-22T12:15:47;100692.53;;;25.18;87.42
54194;BME280;40102;50.906;6.972;2023-06-22T12:18:12;100689.59;;;25.20;88.02
54194;BME280;40102;50.906;6.972;2023-06-22T12:20:40;100681.88;;;25.24;86.98
54194;BME280;40102;50.906;6.972;2023-06-22T12:23:05;100676.72;;;25.29;86.06
54194;BME280;40102;50.906;6.972;2023-06-22T12:25:31;100677.22;;;25.32;85.21
54194;BME280;40102;50.906;6.972;2023-06-22T12:27:56;100664.84;;;25.36;84.76
54194;BME280;40102;50.906;6.972;2023-06-22T12:30:21;100652.31;;;25.42;85.17
54194;BME280;40102;50.906;6.972;2023-06-22T12:32:47;100641.19;;;25.43;84.46
54194;BME280;40102;50.906;6.972;2023-06-22T12:35:12;100644.91;;;25.50;85.43
54194;BME280;40102;50.906;6.972;2023-06-22T12:37:42;100640.19;;;25.59;85.08
54194;BME280;40102;50.906;6.972;2023-06-22T12:40:08;100645.94;;;25.72;86.42
54194;BME280;40102;50.906;6.972;2023-06-22T12:42:34;100642.38;;;25.87;85.90
54194;BME280;40102;50.906;6.972;2023-06-22T12:44:59;100639.00;;;25.99;84.55
54194;BME280;40102;50.906;6.972;2023-06-22T12:47:25;100631.22;;;26.18;84.24
54194;BME280;40102;50.906;6.972;2023-06-22T12:49:50;100628.13;;;26.35;80.22
54194;BME280;40102;50.906;6.972;2023-06-22T12:52:15;100625.47;;;26.27;78.34